createdAt,value
2018-11-04T00:02:05.472Z,6.90
2018-11-04T00:04:33.779Z,6.23
2018-11-04T00:07:03.029Z,6.37
2018-11-04T00:09:32.319Z,7.27
2018-11-04T00:12:00.612Z,6.67
2018-11-04T00:14:28.872Z,7.37
2018-11-04T00:16:57.146Z,6.30
2018-11-04T00:19:25.391Z,6.27
2018-11-04T00:21:53.654Z,7.07
2018-11-04T00:24:21.961Z,6.50
2018-11-04T00:26:50.226Z,6.70
2018-11-04T00:29:19.453Z,6.17
2018-11-04T00:31:47.677Z,5.90
2018-11-04T00:34:15.933Z,6.60
2018-11-04T00:36:44.184Z,6.30
2018-11-04T00:39:13.514Z,6.13
2018-11-04T00:41:41.747Z,6.53
2018-11-04T00:44:10.940Z,6.70
2018-11-04T00:46:39.211Z,6.20
2018-11-04T00:49:07.826Z,6.47
2018-11-04T00:51:36.031Z,6.43
2018-11-04T00:54:04.292Z,5.73
2018-11-04T00:56:32.598Z,6.23
2018-11-04T00:59:00.828Z,6.30
2018-11-04T01:01:29.389Z,6.53
2018-11-04T01:03:57.607Z,6.23
2018-11-04T01:06:25.872Z,5.70
2018-11-04T01:08:54.437Z,5.90
2018-11-04T01:11:22.773Z,5.60
2018-11-04T01:13:50.973Z,5.87
2018-11-04T01:16:19.184Z,5.77
2018-11-04T01:18:54.103Z,6.03
2018-11-04T01:21:22.311Z,6.00
2018-11-04T01:23:50.520Z,6.10
2018-11-04T01:26:18.738Z,5.77
2018-11-04T01:28:47.228Z,6.00
2018-11-04T01:37:29.761Z,6.87
2018-11-04T01:39:57.978Z,6.53
2018-11-04T01:42:26.216Z,6.50
2018-11-04T01:44:54.430Z,6.10
2018-11-04T01:47:22.650Z,6.20
2018-11-04T01:49:50.856Z,5.90
2018-11-04T01:52:19.091Z,7.10
2018-11-04T01:54:47.306Z,6.37
2018-11-04T01:57:15.515Z,6.43
2018-11-04T01:59:43.715Z,6.30
2018-11-04T02:02:11.913Z,6.50
2018-11-04T02:04:40.123Z,6.17
2018-11-04T02:07:08.343Z,5.87
2018-11-04T02:09:36.589Z,6.33
2018-11-04T02:12:05.375Z,5.30
2018-11-04T02:14:33.588Z,6.73
2018-11-04T02:17:01.822Z,6.40
2018-11-04T02:19:30.045Z,5.80
2018-11-04T02:21:58.269Z,6.50
2018-11-04T02:24:26.480Z,5.47
2018-11-04T02:26:54.686Z,5.87
2018-11-04T02:29:22.910Z,6.67
2018-11-04T02:31:51.116Z,5.57
2018-11-04T02:34:19.303Z,5.93
2018-11-04T02:36:47.503Z,6.53
2018-11-04T02:39:15.703Z,6.20
2018-11-04T02:41:43.914Z,6.13
2018-11-04T02:44:12.141Z,5.67
2018-11-04T02:46:40.375Z,6.53
2018-11-04T02:49:08.621Z,6.50
2018-11-04T02:51:36.870Z,5.67
2018-11-04T02:54:05.076Z,5.87
2018-11-04T02:56:33.277Z,6.17
2018-11-04T02:59:01.838Z,5.80
2018-11-04T03:01:30.072Z,6.17
2018-11-04T03:03:58.288Z,6.13
2018-11-04T03:06:26.556Z,6.17
2018-11-04T03:08:55.843Z,6.03
2018-11-04T03:11:24.061Z,6.77
2018-11-04T03:13:52.265Z,5.93
2018-11-04T03:16:20.448Z,5.77
2018-11-04T03:18:48.761Z,6.33
2018-11-04T03:21:17.358Z,7.20
2018-11-04T03:23:45.593Z,6.40
2018-11-04T03:26:13.891Z,6.43
2018-11-04T03:31:16.606Z,6.00
2018-11-04T03:33:44.831Z,6.30
2018-11-04T03:36:13.050Z,5.90
2018-11-04T03:38:41.266Z,6.00
2018-11-04T03:41:09.506Z,6.20
2018-11-04T03:43:37.691Z,5.73
2018-11-04T03:46:06.251Z,6.07
2018-11-04T03:48:34.456Z,6.47
2018-11-04T03:51:02.668Z,6.07
2018-11-04T03:53:30.855Z,6.83
2018-11-04T03:55:59.098Z,6.50
2018-11-04T03:58:27.306Z,6.30
2018-11-04T04:00:55.903Z,5.97
2018-11-04T04:03:24.108Z,6.43
2018-11-04T04:05:52.357Z,6.37
2018-11-04T04:08:20.578Z,6.67
2018-11-04T04:10:48.784Z,6.53
2018-11-04T04:13:16.972Z,6.40
2018-11-04T04:15:45.171Z,6.20
2018-11-04T04:18:13.372Z,6.30
2018-11-04T04:20:41.666Z,6.03
2018-11-04T04:23:09.860Z,6.70
2018-11-04T04:25:38.089Z,7.17
2018-11-04T04:28:08.810Z,5.77
2018-11-04T04:30:39.433Z,6.13
2018-11-04T04:33:07.654Z,6.63
2018-11-04T04:35:35.845Z,6.23
2018-11-04T04:38:04.907Z,6.50
2018-11-04T04:40:33.099Z,6.80
2018-11-04T04:43:01.318Z,6.23
2018-11-04T04:45:29.519Z,6.07
2018-11-04T04:47:57.725Z,6.40
2018-11-04T04:50:25.912Z,6.20
2018-11-04T04:52:54.095Z,5.80
2018-11-04T04:55:22.306Z,6.20
2018-11-04T04:57:50.502Z,6.40
2018-11-04T05:00:19.744Z,6.30
2018-11-04T05:02:47.970Z,6.00
2018-11-04T05:05:17.160Z,6.43
2018-11-04T05:07:45.352Z,6.27
2018-11-04T05:10:13.572Z,6.70
2018-11-04T05:12:42.043Z,6.73
2018-11-04T05:15:10.245Z,6.67
2018-11-04T05:17:38.435Z,6.70
2018-11-04T05:20:06.675Z,6.90
2018-11-04T05:22:34.895Z,6.47
2018-11-04T05:25:03.105Z,6.97
2018-11-04T05:27:31.312Z,6.80
2018-11-04T05:29:59.538Z,6.53
2018-11-04T05:32:27.739Z,6.80
2018-11-04T05:34:55.934Z,7.03
2018-11-04T05:37:24.148Z,7.47
2018-11-04T05:39:52.358Z,6.60
2018-11-04T05:42:20.567Z,6.93
2018-11-04T05:44:48.767Z,6.47
2018-11-04T05:47:17.003Z,7.70
2018-11-04T05:49:45.257Z,6.77
2018-11-04T05:52:13.516Z,6.77
2018-11-04T05:54:41.718Z,7.23
2018-11-04T05:57:10.290Z,6.90
2018-11-04T05:59:38.758Z,6.53
2018-11-04T06:02:06.971Z,6.70
2018-11-04T06:04:35.218Z,7.20
2018-11-04T06:07:03.444Z,7.37
2018-11-04T06:09:31.637Z,6.70
2018-11-04T06:12:00.956Z,6.97
2018-11-04T06:14:29.153Z,6.97
2018-11-04T06:16:57.369Z,7.07
2018-11-04T06:19:25.627Z,7.10
2018-11-04T06:21:53.841Z,7.17
2018-11-04T06:24:22.041Z,7.37
2018-11-04T06:26:50.250Z,7.27
2018-11-04T06:29:18.468Z,7.30
2018-11-04T06:31:46.686Z,7.00
2018-11-04T06:34:14.900Z,7.03
2018-11-04T06:36:43.103Z,6.80
2018-11-04T06:39:11.758Z,6.90
2018-11-04T06:41:39.991Z,6.47
2018-11-04T06:44:08.205Z,6.80
2018-11-04T06:46:36.461Z,6.33
2018-11-04T06:49:04.696Z,6.70
2018-11-04T06:51:32.923Z,6.47
2018-11-04T06:54:01.122Z,6.70
2018-11-04T06:56:29.343Z,7.90
2018-11-04T06:58:57.570Z,6.50
2018-11-04T07:01:25.771Z,7.07
2018-11-04T07:03:54.005Z,6.60
2018-11-04T07:06:22.208Z,6.80
2018-11-04T07:08:50.459Z,5.63
2018-11-04T07:11:18.701Z,6.17
2018-11-04T07:13:47.354Z,6.63
2018-11-04T07:16:15.589Z,6.53
2018-11-04T07:18:43.793Z,6.70
2018-11-04T07:21:12.018Z,6.67
2018-11-04T07:23:40.218Z,6.63
2018-11-04T07:26:08.443Z,7.40
2018-11-04T07:28:36.651Z,7.47
2018-11-04T07:31:04.893Z,7.43
2018-11-04T07:33:33.099Z,7.73
2018-11-04T07:36:01.389Z,7.80
2018-11-04T07:38:29.633Z,8.20
2018-11-04T07:40:57.833Z,7.50
2018-11-04T07:43:26.051Z,8.73
2018-11-04T07:45:54.242Z,8.97
2018-11-04T07:48:22.448Z,7.97
2018-11-04T07:50:50.677Z,45.80
2018-11-04T07:53:18.906Z,11.53
2018-11-04T07:55:47.119Z,9.33
2018-11-04T07:58:15.323Z,8.67
2018-11-04T08:00:43.607Z,8.50
2018-11-04T08:03:11.761Z,8.37
2018-11-04T08:05:39.985Z,8.90
2018-11-04T08:08:08.262Z,7.60
2018-11-04T08:10:36.479Z,7.80
2018-11-04T08:13:05.111Z,8.10
2018-11-04T08:15:33.346Z,8.13
2018-11-04T08:18:01.710Z,7.83
2018-11-04T08:20:30.123Z,8.60
2018-11-04T08:22:58.501Z,6.57
2018-11-04T08:25:26.836Z,6.57
2018-11-04T08:27:55.336Z,6.47
2018-11-04T08:30:23.648Z,7.70
2018-11-04T08:32:52.254Z,7.13
2018-11-04T08:35:20.653Z,7.43
2018-11-04T08:37:49.122Z,7.97
2018-11-04T08:40:17.785Z,7.93
2018-11-04T08:42:46.274Z,8.27
2018-11-04T08:45:14.753Z,8.90
2018-11-04T08:47:43.109Z,7.53
2018-11-04T08:50:12.583Z,8.00
2018-11-04T08:52:41.004Z,8.60
2018-11-04T08:55:09.374Z,9.90
2018-11-04T08:57:37.769Z,10.60
2018-11-04T09:00:06.352Z,10.37
2018-11-04T09:02:34.683Z,8.83
2018-11-04T09:05:03.115Z,8.67
2018-11-04T09:07:32.613Z,8.17
2018-11-04T09:10:01.096Z,8.47
2018-11-04T09:12:29.779Z,9.70
2018-11-04T09:14:58.255Z,9.93
2018-11-04T09:17:26.946Z,9.33
2018-11-04T09:19:55.575Z,9.30
2018-11-04T09:22:24.222Z,10.33
2018-11-04T09:24:52.551Z,9.37
2018-11-04T09:27:20.917Z,9.10
2018-11-04T09:29:49.268Z,9.07
2018-11-04T09:32:17.815Z,10.57
2018-11-04T09:34:46.322Z,10.60
2018-11-04T09:37:14.689Z,10.00
2018-11-04T09:39:43.168Z,10.33
2018-11-04T09:42:11.653Z,9.73
2018-11-04T09:44:40.146Z,9.70
2018-11-04T09:47:08.543Z,8.87
2018-11-04T09:49:36.963Z,10.90
2018-11-04T09:52:05.577Z,11.77
2018-11-04T09:54:34.056Z,13.40
2018-11-04T09:57:02.536Z,9.83
2018-11-04T09:59:31.014Z,9.80
2018-11-04T10:01:59.502Z,9.70
2018-11-04T10:04:27.990Z,6.53
2018-11-04T10:06:57.079Z,20.70
2018-11-04T10:09:25.658Z,11.77
2018-11-04T10:11:54.007Z,11.13
2018-11-04T10:14:22.618Z,11.43
2018-11-04T10:16:51.683Z,11.80
2018-11-04T10:19:20.265Z,12.63
2018-11-04T10:21:48.661Z,10.40
2018-11-04T10:24:17.049Z,10.67
2018-11-04T10:26:45.423Z,14.40
2018-11-04T10:29:14.013Z,12.57
2018-11-04T10:31:42.502Z,11.47
2018-11-04T10:34:10.873Z,12.20
2018-11-04T10:36:39.504Z,6.00
2018-11-04T10:39:08.044Z,6.53
2018-11-04T10:41:36.528Z,6.43
2018-11-04T10:44:05.106Z,6.53
2018-11-04T10:46:34.225Z,6.20
2018-11-04T10:49:02.792Z,7.47
2018-11-04T10:51:31.279Z,6.67
2018-11-04T10:54:00.587Z,6.70
2018-11-04T10:56:30.075Z,6.70
2018-11-04T10:58:58.711Z,6.40
2018-11-04T11:01:27.251Z,7.20
2018-11-04T11:03:55.816Z,7.20
2018-11-04T11:06:24.391Z,7.20
2018-11-04T11:08:52.978Z,7.10
2018-11-04T11:11:21.410Z,7.20
2018-11-04T11:13:49.861Z,7.07
2018-11-04T11:16:18.626Z,7.67
2018-11-04T11:18:47.311Z,8.30
2018-11-04T11:21:15.792Z,7.03
2018-11-04T11:23:44.471Z,5.80
2018-11-04T11:26:13.061Z,6.30
2018-11-04T11:28:41.758Z,6.70
2018-11-04T11:31:11.346Z,6.90
2018-11-04T11:33:39.816Z,5.90
2018-11-04T11:36:08.423Z,6.20
2018-11-04T11:38:36.896Z,6.47
2018-11-04T11:41:05.370Z,6.73
2018-11-04T11:43:33.866Z,6.60
2018-11-04T11:46:02.286Z,6.03
2018-11-04T11:48:30.724Z,6.20
2018-11-04T11:50:59.315Z,5.87
2018-11-04T11:53:27.780Z,6.53
2018-11-04T11:55:56.261Z,6.60
2018-11-04T11:58:25.601Z,5.77
2018-11-04T12:00:54.127Z,5.07
2018-11-04T12:03:22.554Z,5.17
2018-11-04T12:05:51.032Z,4.90
2018-11-04T12:08:19.587Z,4.93
2018-11-04T12:10:47.972Z,6.23
2018-11-04T12:13:16.307Z,4.67
2018-11-04T12:15:44.827Z,5.30
2018-11-04T12:18:13.308Z,5.77
2018-11-04T12:20:41.793Z,5.63
2018-11-04T12:23:10.368Z,5.07
2018-11-04T12:25:38.852Z,4.83
2018-11-04T12:28:07.335Z,5.00
2018-11-04T12:30:35.908Z,4.80
2018-11-04T12:33:04.269Z,5.47
2018-11-04T12:35:32.780Z,4.33
2018-11-04T12:38:01.212Z,10.00
2018-11-04T12:40:29.724Z,5.53
2018-11-04T12:42:58.333Z,4.83
2018-11-04T12:45:26.849Z,4.37
2018-11-04T12:47:55.280Z,4.00
2018-11-04T12:50:23.764Z,3.57
2018-11-04T12:52:52.242Z,3.37
2018-11-04T12:55:21.206Z,4.20
2018-11-04T12:57:49.577Z,3.17
2018-11-04T13:00:17.987Z,2.90
2018-11-04T13:02:46.578Z,3.70
2018-11-04T13:05:15.163Z,3.43
2018-11-04T13:07:43.636Z,3.57
2018-11-04T13:10:12.399Z,3.03
2018-11-04T13:12:40.804Z,3.10
2018-11-04T13:15:09.294Z,3.50
2018-11-04T13:17:37.734Z,3.33
2018-11-04T13:20:06.375Z,3.70
2018-11-04T13:22:34.820Z,3.77
2018-11-04T13:25:03.413Z,3.67
2018-11-04T13:27:31.912Z,5.23
2018-11-04T13:30:00.596Z,4.07
2018-11-04T13:32:29.860Z,4.10
2018-11-04T13:34:58.370Z,3.40
2018-11-04T13:37:26.993Z,2.90
2018-11-04T13:39:55.622Z,3.60
2018-11-04T13:42:24.354Z,3.40
2018-11-04T13:44:52.904Z,3.60
2018-11-04T13:47:21.522Z,3.70
2018-11-04T13:49:50.230Z,3.83
2018-11-04T13:52:18.919Z,4.00
2018-11-04T13:54:47.537Z,2.57
2018-11-04T13:57:16.216Z,3.03
2018-11-04T13:59:44.904Z,3.43
2018-11-04T14:02:13.507Z,3.37
2018-11-04T14:04:42.722Z,2.97
2018-11-04T14:07:11.778Z,3.43
2018-11-04T14:09:40.779Z,3.13
2018-11-04T14:12:09.581Z,3.13
2018-11-04T14:14:38.350Z,3.50
2018-11-04T14:17:07.391Z,3.10
2018-11-04T14:19:35.933Z,3.20
2018-11-04T14:22:04.608Z,3.10
2018-11-04T14:24:34.188Z,2.77
2018-11-04T14:27:04.293Z,3.50
2018-11-04T14:29:34.043Z,3.13
2018-11-04T14:32:03.163Z,3.50
2018-11-04T14:34:31.848Z,4.27
2018-11-04T14:37:00.513Z,3.20
2018-11-04T14:39:29.223Z,3.30
2018-11-04T14:41:58.919Z,3.50
2018-11-04T14:44:27.823Z,3.33
2018-11-04T14:46:56.258Z,3.50
2018-11-04T14:49:24.968Z,3.70
2018-11-04T14:51:53.747Z,3.97
2018-11-04T14:54:22.335Z,3.80
2018-11-04T14:56:51.000Z,3.90
2018-11-04T14:59:19.808Z,6.17
2018-11-04T15:01:48.565Z,8.63
2018-11-04T15:04:17.073Z,9.30
2018-11-04T15:06:45.969Z,4.53
2018-11-04T15:09:14.656Z,4.57
2018-11-04T15:11:43.336Z,5.03
2018-11-04T15:14:12.026Z,4.13
2018-11-04T15:16:40.622Z,4.87
2018-11-04T15:19:09.363Z,3.90
2018-11-04T15:21:37.975Z,4.53
2018-11-04T15:24:06.557Z,9.40
2018-11-04T15:26:35.321Z,7.67
2018-11-04T15:29:03.933Z,7.57
2018-11-04T15:31:32.460Z,4.70
2018-11-04T15:34:01.158Z,4.33
2018-11-04T15:36:29.692Z,4.80
2018-11-04T15:38:58.350Z,5.47
2018-11-04T15:41:26.948Z,9.60
2018-11-04T15:43:57.125Z,6.67
2018-11-04T15:46:26.060Z,13.57
2018-11-04T15:48:55.099Z,11.23
2018-11-04T15:51:24.108Z,12.43
2018-11-04T15:53:52.833Z,10.83
2018-11-04T15:56:21.533Z,9.80
2018-11-04T15:58:50.413Z,10.00
2018-11-04T16:01:18.887Z,14.13
2018-11-04T16:03:47.969Z,12.53
2018-11-04T16:06:16.678Z,13.07
2018-11-04T16:08:45.148Z,13.17
2018-11-04T16:11:13.606Z,13.87
2018-11-04T16:13:42.248Z,13.43
2018-11-04T16:16:11.205Z,9.83
2018-11-04T16:18:39.977Z,8.13
2018-11-04T16:21:08.985Z,17.37
2018-11-04T16:23:37.979Z,20.90
2018-11-04T16:26:06.886Z,18.20
2018-11-04T16:28:35.475Z,18.37
2018-11-04T16:31:03.909Z,16.03
2018-11-04T16:33:32.540Z,15.87
2018-11-04T16:36:01.204Z,15.87
2018-11-04T16:38:29.965Z,16.67
2018-11-04T16:40:58.574Z,13.13
2018-11-04T16:43:27.192Z,17.27
2018-11-04T16:45:55.744Z,14.27
2018-11-04T16:48:24.440Z,12.83
2018-11-04T16:50:53.230Z,15.03
2018-11-04T16:53:22.065Z,16.13
2018-11-04T16:55:50.687Z,29.77
2018-11-04T16:58:19.168Z,20.03
2018-11-04T17:00:48.426Z,15.47
2018-11-04T17:03:16.956Z,17.00
2018-11-04T17:05:45.705Z,18.27
2018-11-04T17:08:14.357Z,21.97
2018-11-04T17:10:44.748Z,18.40
2018-11-04T17:13:13.940Z,18.13
2018-11-04T17:15:43.299Z,16.23
2018-11-04T17:18:12.405Z,15.00
2018-11-04T17:20:41.356Z,8.67
2018-11-04T17:23:11.251Z,7.40
2018-11-04T17:25:40.631Z,7.17
2018-11-04T17:28:09.728Z,9.97
2018-11-04T17:30:39.398Z,14.97
2018-11-04T17:33:08.914Z,5.87
2018-11-04T17:35:38.881Z,12.53
2018-11-04T17:38:09.309Z,6.80
2018-11-04T17:40:38.599Z,8.77
2018-11-04T17:43:07.373Z,19.67
2018-11-04T17:45:36.345Z,15.20
2018-11-04T17:48:05.268Z,6.03
2018-11-04T17:50:34.311Z,4.23
2018-11-04T17:53:03.350Z,4.50
2018-11-04T17:55:33.409Z,5.03
2018-11-04T17:58:02.814Z,5.83
2018-11-04T18:00:31.668Z,5.43
2018-11-04T18:03:00.348Z,6.23
2018-11-04T18:05:29.136Z,6.27
2018-11-04T18:07:57.775Z,5.97
2018-11-04T18:10:26.409Z,5.47
2018-11-04T18:12:54.851Z,6.87
2018-11-04T18:15:23.373Z,5.00
2018-11-04T18:17:51.771Z,6.23
2018-11-04T18:20:20.396Z,9.87
2018-11-04T18:22:49.113Z,11.50
2018-11-04T18:25:18.930Z,11.80
2018-11-04T18:27:48.003Z,12.37
2018-11-04T18:30:16.716Z,12.50
2018-11-04T18:32:45.604Z,12.10
2018-11-04T18:35:14.289Z,13.40
2018-11-04T18:37:42.865Z,11.20
2018-11-04T18:40:11.455Z,7.40
2018-11-04T18:42:40.452Z,7.40
2018-11-04T18:45:09.393Z,9.47
2018-11-04T18:47:37.913Z,9.40
2018-11-04T18:50:06.906Z,7.40
2018-11-04T18:52:35.893Z,7.17
2018-11-04T18:55:04.699Z,9.10
2018-11-04T18:57:33.895Z,10.20
2018-11-04T19:00:02.898Z,10.50
2018-11-04T19:02:31.718Z,9.00
2018-11-04T19:05:00.357Z,10.37
2018-11-04T19:07:28.943Z,16.67
2018-11-04T19:09:57.575Z,15.47
2018-11-04T19:12:26.306Z,15.43
2018-11-04T19:14:55.008Z,14.77
2018-11-04T19:17:23.490Z,10.37
2018-11-04T19:19:52.311Z,10.97
2018-11-04T19:22:21.046Z,9.97
2018-11-04T19:24:50.560Z,13.90
2018-11-04T19:27:19.242Z,12.47
2018-11-04T19:29:48.016Z,13.87
2018-11-04T19:32:16.762Z,14.97
2018-11-04T19:34:45.752Z,12.33
2018-11-04T19:37:14.586Z,15.43
2018-11-04T19:39:43.284Z,10.73
2018-11-04T19:42:12.173Z,9.17
2018-11-04T19:44:40.897Z,9.73
2018-11-04T19:47:09.549Z,16.13
2018-11-04T19:49:38.236Z,11.90
2018-11-04T19:52:07.669Z,9.00
2018-11-04T19:54:36.488Z,8.53
2018-11-04T19:57:05.517Z,7.33
2018-11-04T19:59:34.513Z,7.00
2018-11-04T20:02:04.211Z,9.20
2018-11-04T20:04:32.912Z,9.70
2018-11-04T20:07:02.700Z,12.43
2018-11-04T20:09:31.294Z,13.20
2018-11-04T20:11:59.980Z,11.30
2018-11-04T20:14:28.575Z,9.73
2018-11-04T20:16:57.252Z,10.70
2018-11-04T20:19:31.540Z,11.27
2018-11-04T20:22:00.335Z,14.80
2018-11-04T20:24:30.406Z,19.23
2018-11-04T20:26:59.494Z,12.43
2018-11-04T20:29:28.710Z,11.93
2018-11-04T20:31:57.710Z,11.77
2018-11-04T20:34:26.448Z,12.13
2018-11-04T20:36:55.571Z,11.50
2018-11-04T20:39:24.318Z,11.70
2018-11-04T20:41:53.418Z,10.57
2018-11-04T20:44:22.863Z,11.00
2018-11-04T20:46:53.849Z,12.27
2018-11-04T21:34:08.265Z,10.57
2018-11-04T21:36:37.006Z,10.47
2018-11-04T21:39:05.915Z,10.23
2018-11-04T21:41:34.567Z,11.07
2018-11-04T21:44:03.805Z,10.37
2018-11-04T21:46:32.450Z,10.27
2018-11-04T21:49:01.815Z,11.30
2018-11-04T21:51:30.541Z,11.73
2018-11-04T21:53:59.530Z,11.97
2018-11-04T21:56:28.906Z,12.83
2018-11-04T21:58:57.823Z,12.07
2018-11-04T22:01:26.319Z,17.83
2018-11-04T22:03:55.774Z,12.97
2018-11-04T22:06:23.794Z,11.53
2018-11-04T22:08:52.566Z,12.20
2018-11-04T22:11:21.356Z,11.87
2018-11-04T22:13:50.956Z,10.17
2018-11-04T22:16:19.475Z,9.77
2018-11-04T22:18:48.031Z,9.43
2018-11-04T22:21:16.865Z,9.63
2018-11-04T22:23:45.603Z,9.90
2018-11-04T22:26:14.269Z,10.57
2018-11-04T22:28:43.025Z,11.77
2018-11-04T22:31:11.656Z,12.57
2018-11-04T22:33:40.099Z,12.10
2018-11-04T22:36:08.600Z,12.03
2018-11-04T22:38:37.115Z,11.63
2018-11-04T22:41:06.681Z,12.43
2018-11-04T22:43:35.426Z,11.77
2018-11-04T22:46:03.983Z,12.10
2018-11-04T22:48:32.995Z,11.23
2018-11-04T22:51:01.754Z,10.80
2018-11-04T22:53:32.748Z,10.27
2018-11-04T22:56:02.170Z,10.20
2018-11-04T22:58:30.584Z,10.37
2018-11-04T23:00:59.772Z,10.70
2018-11-04T23:03:28.564Z,11.00
2018-11-04T23:05:57.148Z,11.00
2018-11-04T23:08:25.539Z,11.73
2018-11-04T23:10:53.911Z,11.83
2018-11-04T23:13:22.346Z,12.13
2018-11-04T23:15:50.813Z,12.13
2018-11-04T23:18:19.393Z,12.50
2018-11-04T23:20:47.786Z,13.17
2018-11-04T23:23:16.406Z,12.33
2018-11-04T23:25:44.991Z,12.10
2018-11-04T23:28:13.616Z,12.90
2018-11-04T23:30:42.070Z,11.93
2018-11-04T23:33:10.526Z,12.20
2018-11-04T23:35:39.014Z,12.87
2018-11-04T23:38:07.589Z,14.57
2018-11-04T23:40:36.087Z,14.77
2018-11-04T23:43:04.723Z,56.70
2018-11-04T23:45:33.241Z,50.97
2018-11-04T23:48:01.723Z,15.27
2018-11-04T23:50:30.115Z,15.00
2018-11-04T23:52:58.588Z,15.10
2018-11-04T23:55:27.071Z,16.13
2018-11-04T23:57:55.648Z,15.93
